sensor_id;sensor_type;location;lat;lon;timestamp;P1;durP1;ratioP1;P2;durP2;ratioP2
21886;SDS011;11108;49.988;8.182;2023-05-21T00:00:25;7.23;;;6.63;;
21886;SDS011;11108;49.988;8.182;2023-05-21T00:02:51;7.33;;;6.73;;
21886;SDS011;11108;49.988;8.182;2023-05-21T00:05:16;7.23;;;6.53;;
21886;SDS011;11108;49.988;8.182;2023-05-21T00:07:42;7.17;;;6.67;;
21886;SDS011;11108;49.988;8.182;2023-05-21T00:10:08;6.70;;;6.10;;
21886;SDS011;11108;49.988;8.182;2023-05-21T00:12:33;7.37;;;6.77;;
21886;SDS011;11108;49.988;8.182;2023-05-21T00:14:58;7.37;;;6.80;;
21886;SDS011;11108;49.988;8.182;2023-05-21T00:17:25;7.43;;;6.83;;
21886;SDS011;11108;49.988;8.182;2023-05-21T00:19:50;7.40;;;6.80;;
21886;SDS011;11108;49.988;8.182;2023-05-21T00:22:15;6.93;;;6.43;;
21886;SDS011;11108;49.988;8.182;2023-05-21T00:24:41;7.50;;;6.90;;
21886;SDS011;11108;49.988;8.182;2023-05-21T00:27:06;6.53;;;6.03;;
21886;SDS011;11108;49.988;8.182;2023-05-21T00:29:31;6.73;;;6.17;;
21886;SDS011;11108;49.988;8.182;2023-05-21T00:31:56;6.97;;;6.43;;
21886;SDS011;11108;49.988;8.182;2023-05-21T00:34:22;6.77;;;6.27;;
21886;SDS011;11108;49.988;8.182;2023-05-21T00:36:47;7.00;;;6.40;;
21886;SDS011;11108;49.988;8.182;2023-05-21T00:39:12;6.97;;;6.47;;
21886;SDS011;11108;49.988;8.182;2023-05-21T00:41:37;6.80;;;6.30;;
21886;SDS011;11108;49.988;8.182;2023-05-21T00:44:07;8.10;;;6.30;;
21886;SDS011;11108;49.988;8.182;2023-05-21T00:46:32;6.60;;;6.10;;
21886;SDS011;11108;49.988;8.182;2023-05-21T00:48:58;7.90;;;7.20;;
21886;SDS011;11108;49.988;8.182;2023-05-21T00:51:24;6.70;;;6.20;;
21886;SDS011;11108;49.988;8.182;2023-05-21T00:53:50;6.57;;;6.07;;
21886;SDS011;11108;49.988;8.182;2023-05-21T00:56:17;7.10;;;6.50;;
21886;SDS011;11108;49.988;8.182;2023-05-21T00:58:43;6.47;;;5.97;;
21886;SDS011;11108;49.988;8.182;2023-05-21T01:01:08;6.50;;;6.00;;
21886;SDS011;11108;49.988;8.182;2023-05-21T01:03:37;7.33;;;6.73;;
21886;SDS011;11108;49.988;8.182;2023-05-21T01:06:03;6.50;;;6.00;;
21886;SDS011;11108;49.988;8.182;2023-05-21T01:08:29;6.73;;;6.23;;
21886;SDS011;11108;49.988;8.182;2023-05-21T01:10:54;7.00;;;6.40;;
21886;SDS011;11108;49.988;8.182;2023-05-21T01:13:20;7.50;;;6.90;;
21886;SDS011;11108;49.988;8.182;2023-05-21T01:15:47;6.83;;;6.27;;
21886;SDS011;11108;49.988;8.182;2023-05-21T01:18:13;7.57;;;6.97;;
21886;SDS011;11108;49.988;8.182;2023-05-21T01:20:38;7.37;;;6.77;;
21886;SDS011;11108;49.988;8.182;2023-05-21T01:23:04;7.20;;;6.70;;
21886;SDS011;11108;49.988;8.182;2023-05-21T01:25:29;7.57;;;6.97;;
21886;SDS011;11108;49.988;8.182;2023-05-21T01:27:54;7.10;;;6.60;;
21886;SDS011;11108;49.988;8.182;2023-05-21T01:30:20;7.07;;;6.37;;
21886;SDS011;11108;49.988;8.182;2023-05-21T01:35:48;7.03;;;6.53;;
21886;SDS011;11108;49.988;8.182;2023-05-21T01:38:17;6.70;;;6.20;;
21886;SDS011;11108;49.988;8.182;2023-05-21T01:40:54;7.47;;;6.87;;
21886;SDS011;11108;49.988;8.182;2023-05-21T01:43:22;6.70;;;6.10;;
21886;SDS011;11108;49.988;8.182;2023-05-21T01:45:48;7.70;;;7.03;;
21886;SDS011;11108;49.988;8.182;2023-05-21T01:48:14;8.07;;;7.10;;
21886;SDS011;11108;49.988;8.182;2023-05-21T01:50:42;6.83;;;6.33;;
21886;SDS011;11108;49.988;8.182;2023-05-21T01:53:08;7.10;;;6.50;;
21886;SDS011;11108;49.988;8.182;2023-05-21T01:55:33;7.00;;;6.50;;
21886;SDS011;11108;49.988;8.182;2023-05-21T01:57:59;7.47;;;6.83;;
21886;SDS011;11108;49.988;8.182;2023-05-21T02:00:25;7.67;;;7.07;;
21886;SDS011;11108;49.988;8.182;2023-05-21T02:02:54;6.67;;;6.10;;
21886;SDS011;11108;49.988;8.182;2023-05-21T02:05:20;6.87;;;6.30;;
21886;SDS011;11108;49.988;8.182;2023-05-21T02:07:45;7.77;;;7.07;;
21886;SDS011;11108;49.988;8.182;2023-05-21T02:10:11;7.33;;;6.73;;
21886;SDS011;11108;49.988;8.182;2023-05-21T02:12:37;6.70;;;6.20;;
21886;SDS011;11108;49.988;8.182;2023-05-21T02:15:02;6.60;;;6.10;;
21886;SDS011;11108;49.988;8.182;2023-05-21T02:17:27;7.23;;;6.63;;
21886;SDS011;11108;49.988;8.182;2023-05-21T02:19:55;6.83;;;6.23;;
21886;SDS011;11108;49.988;8.182;2023-05-21T02:22:20;7.00;;;6.43;;
21886;SDS011;11108;49.988;8.182;2023-05-21T02:24:45;7.63;;;6.93;;
21886;SDS011;11108;49.988;8.182;2023-05-21T02:27:11;6.87;;;6.37;;
21886;SDS011;11108;49.988;8.182;2023-05-21T02:29:37;7.73;;;7.13;;
21886;SDS011;11108;49.988;8.182;2023-05-21T02:32:02;6.97;;;6.37;;
21886;SDS011;11108;49.988;8.182;2023-05-21T02:34:28;7.10;;;6.50;;
21886;SDS011;11108;49.988;8.182;2023-05-21T02:36:56;7.60;;;6.90;;
21886;SDS011;11108;49.988;8.182;2023-05-21T02:39:22;6.60;;;6.10;;
21886;SDS011;11108;49.988;8.182;2023-05-21T02:41:47;7.07;;;6.47;;
21886;SDS011;11108;49.988;8.182;2023-05-21T02:44:13;7.13;;;6.53;;
21886;SDS011;11108;49.988;8.182;2023-05-21T02:46:38;7.07;;;6.50;;
21886;SDS011;11108;49.988;8.182;2023-05-21T02:49:03;7.63;;;6.93;;
21886;SDS011;11108;49.988;8.182;2023-05-21T02:51:28;6.40;;;5.90;;
21886;SDS011;11108;49.988;8.182;2023-05-21T02:53:54;7.10;;;6.50;;
21886;SDS011;11108;49.988;8.182;2023-05-21T02:56:19;6.57;;;6.07;;
21886;SDS011;11108;49.988;8.182;2023-05-21T02:58:44;6.37;;;5.83;;
21886;SDS011;11108;49.988;8.182;2023-05-21T03:01:10;6.80;;;6.30;;
21886;SDS011;11108;49.988;8.182;2023-05-21T03:03:35;6.67;;;6.07;;
21886;SDS011;11108;49.988;8.182;2023-05-21T03:06:00;6.43;;;5.93;;
21886;SDS011;11108;49.988;8.182;2023-05-21T03:08:26;7.23;;;6.57;;
21886;SDS011;11108;49.988;8.182;2023-05-21T03:10:51;7.37;;;6.67;;
21886;SDS011;11108;49.988;8.182;2023-05-21T03:13:16;6.67;;;6.07;;
21886;SDS011;11108;49.988;8.182;2023-05-21T03:15:41;7.60;;;7.00;;
21886;SDS011;11108;49.988;8.182;2023-05-21T03:18:08;6.90;;;6.37;;
21886;SDS011;11108;49.988;8.182;2023-05-21T03:20:33;7.17;;;6.57;;
21886;SDS011;11108;49.988;8.182;2023-05-21T03:22:58;6.90;;;6.30;;
21886;SDS011;11108;49.988;8.182;2023-05-21T03:25:24;6.40;;;5.90;;
21886;SDS011;11108;49.988;8.182;2023-05-21T03:27:49;7.10;;;6.50;;
21886;SDS011;11108;49.988;8.182;2023-05-21T03:30:15;7.40;;;6.70;;
21886;SDS011;11108;49.988;8.182;2023-05-21T03:32:40;6.43;;;6.00;;
21886;SDS011;11108;49.988;8.182;2023-05-21T03:35:08;7.30;;;6.70;;
21886;SDS011;11108;49.988;8.182;2023-05-21T03:37:34;7.23;;;6.53;;
21886;SDS011;11108;49.988;8.182;2023-05-21T03:39:59;7.17;;;6.57;;
21886;SDS011;11108;49.988;8.182;2023-05-21T03:42:24;6.77;;;6.27;;
21886;SDS011;11108;49.988;8.182;2023-05-21T03:44:50;6.93;;;6.43;;
21886;SDS011;11108;49.988;8.182;2023-05-21T03:47:15;7.40;;;6.80;;
21886;SDS011;11108;49.988;8.182;2023-05-21T03:49:40;6.40;;;5.90;;
21886;SDS011;11108;49.988;8.182;2023-05-21T03:52:05;7.33;;;6.73;;
21886;SDS011;11108;49.988;8.182;2023-05-21T03:54:30;7.13;;;6.53;;
21886;SDS011;11108;49.988;8.182;2023-05-21T03:56:56;7.00;;;6.40;;
21886;SDS011;11108;49.988;8.182;2023-05-21T03:59:21;7.50;;;6.90;;
21886;SDS011;11108;49.988;8.182;2023-05-21T04:01:46;6.97;;;6.40;;
21886;SDS011;11108;49.988;8.182;2023-05-21T04:04:11;8.10;;;7.43;;
21886;SDS011;11108;49.988;8.182;2023-05-21T04:06:36;7.10;;;6.60;;
21886;SDS011;11108;49.988;8.182;2023-05-21T04:09:02;7.43;;;6.83;;
21886;SDS011;11108;49.988;8.182;2023-05-21T04:11:28;6.73;;;6.23;;
21886;SDS011;11108;49.988;8.182;2023-05-21T04:13:53;8.20;;;7.43;;
21886;SDS011;11108;49.988;8.182;2023-05-21T04:16:18;7.07;;;6.50;;
21886;SDS011;11108;49.988;8.182;2023-05-21T04:18:44;6.63;;;6.13;;
21886;SDS011;11108;49.988;8.182;2023-05-21T04:21:10;7.20;;;6.60;;
21886;SDS011;11108;49.988;8.182;2023-05-21T04:23:35;7.03;;;6.43;;
21886;SDS011;11108;49.988;8.182;2023-05-21T04:26:00;7.43;;;6.87;;
21886;SDS011;11108;49.988;8.182;2023-05-21T04:28:25;7.30;;;6.70;;
21886;SDS011;11108;49.988;8.182;2023-05-21T04:30:52;7.13;;;6.53;;
21886;SDS011;11108;49.988;8.182;2023-05-21T04:33:18;6.60;;;6.13;;
21886;SDS011;11108;49.988;8.182;2023-05-21T04:35:48;7.43;;;6.73;;
21886;SDS011;11108;49.988;8.182;2023-05-21T04:38:14;7.37;;;6.77;;
21886;SDS011;11108;49.988;8.182;2023-05-21T04:40:43;7.57;;;6.97;;
21886;SDS011;11108;49.988;8.182;2023-05-21T04:43:08;7.17;;;6.57;;
21886;SDS011;11108;49.988;8.182;2023-05-21T04:45:35;7.50;;;6.80;;
21886;SDS011;11108;49.988;8.182;2023-05-21T04:48:00;6.77;;;6.27;;
21886;SDS011;11108;49.988;8.182;2023-05-21T04:50:26;7.23;;;6.70;;
21886;SDS011;11108;49.988;8.182;2023-05-21T04:52:54;7.63;;;7.03;;
21886;SDS011;11108;49.988;8.182;2023-05-21T04:55:19;6.93;;;6.33;;
21886;SDS011;11108;49.988;8.182;2023-05-21T04:57:45;7.03;;;6.43;;
21886;SDS011;11108;49.988;8.182;2023-05-21T05:00:10;6.63;;;6.03;;
21886;SDS011;11108;49.988;8.182;2023-05-21T05:02:35;7.20;;;6.60;;
21886;SDS011;11108;49.988;8.182;2023-05-21T05:05:01;7.50;;;6.90;;
21886;SDS011;11108;49.988;8.182;2023-05-21T05:07:26;7.17;;;6.53;;
21886;SDS011;11108;49.988;8.182;2023-05-21T05:09:51;7.47;;;6.87;;
21886;SDS011;11108;49.988;8.182;2023-05-21T05:12:16;7.17;;;6.57;;
21886;SDS011;11108;49.988;8.182;2023-05-21T05:14:42;7.40;;;6.80;;
21886;SDS011;11108;49.988;8.182;2023-05-21T05:17:07;6.40;;;5.90;;
21886;SDS011;11108;49.988;8.182;2023-05-21T05:19:34;6.67;;;6.17;;
21886;SDS011;11108;49.988;8.182;2023-05-21T05:21:59;7.20;;;6.70;;
21886;SDS011;11108;49.988;8.182;2023-05-21T05:24:24;7.73;;;7.03;;
21886;SDS011;11108;49.988;8.182;2023-05-21T05:26:49;7.20;;;6.60;;
21886;SDS011;11108;49.988;8.182;2023-05-21T05:29:14;6.77;;;6.27;;
21886;SDS011;11108;49.988;8.182;2023-05-21T05:31:40;7.57;;;6.97;;
21886;SDS011;11108;49.988;8.182;2023-05-21T05:34:05;7.47;;;6.77;;
21886;SDS011;11108;49.988;8.182;2023-05-21T05:36:30;7.13;;;6.63;;
21886;SDS011;11108;49.988;8.182;2023-05-21T05:38:55;6.73;;;6.23;;
21886;SDS011;11108;49.988;8.182;2023-05-21T05:41:20;7.13;;;6.53;;
21886;SDS011;11108;49.988;8.182;2023-05-21T05:43:46;7.17;;;6.57;;
21886;SDS011;11108;49.988;8.182;2023-05-21T05:46:11;6.83;;;6.33;;
21886;SDS011;11108;49.988;8.182;2023-05-21T05:48:37;7.50;;;6.90;;
21886;SDS011;11108;49.988;8.182;2023-05-21T05:51:02;7.23;;;6.67;;
21886;SDS011;11108;49.988;8.182;2023-05-21T05:53:27;6.90;;;6.40;;
21886;SDS011;11108;49.988;8.182;2023-05-21T05:55:52;7.40;;;6.80;;
21886;SDS011;11108;49.988;8.182;2023-05-21T05:58:18;7.30;;;6.80;;
21886;SDS011;11108;49.988;8.182;2023-05-21T06:00:43;7.10;;;6.50;;
21886;SDS011;11108;49.988;8.182;2023-05-21T06:03:08;7.40;;;6.80;;
21886;SDS011;11108;49.988;8.182;2023-05-21T06:05:33;6.97;;;6.37;;
21886;SDS011;11108;49.988;8.182;2023-05-21T06:07:59;7.33;;;6.77;;
21886;SDS011;11108;49.988;8.182;2023-05-21T06:10:24;7.83;;;7.13;;
21886;SDS011;11108;49.988;8.182;2023-05-21T06:12:49;7.53;;;6.93;;
21886;SDS011;11108;49.988;8.182;2023-05-21T06:15:14;7.70;;;7.00;;
21886;SDS011;11108;49.988;8.182;2023-05-21T06:17:40;7.57;;;6.97;;
21886;SDS011;11108;49.988;8.182;2023-05-21T06:20:07;6.80;;;6.23;;
21886;SDS011;11108;49.988;8.182;2023-05-21T06:22:33;6.93;;;6.37;;
21886;SDS011;11108;49.988;8.182;2023-05-21T06:24:58;6.90;;;6.30;;
21886;SDS011;11108;49.988;8.182;2023-05-21T06:27:23;7.83;;;7.13;;
21886;SDS011;11108;49.988;8.182;2023-05-21T06:29:48;7.30;;;6.70;;
21886;SDS011;11108;49.988;8.182;2023-05-21T06:32:14;7.00;;;6.50;;
21886;SDS011;11108;49.988;8.182;2023-05-21T06:34:39;7.37;;;6.77;;
21886;SDS011;11108;49.988;8.182;2023-05-21T06:37:04;7.87;;;7.27;;
21886;SDS011;11108;49.988;8.182;2023-05-21T06:39:30;7.27;;;6.77;;
21886;SDS011;11108;49.988;8.182;2023-05-21T06:41:55;7.43;;;6.83;;
21886;SDS011;11108;49.988;8.182;2023-05-21T06:44:20;7.27;;;6.70;;
21886;SDS011;11108;49.988;8.182;2023-05-21T06:46:46;7.20;;;6.70;;
21886;SDS011;11108;49.988;8.182;2023-05-21T06:49:11;7.43;;;6.73;;
21886;SDS011;11108;49.988;8.182;2023-05-21T06:51:37;7.83;;;7.23;;
21886;SDS011;11108;49.988;8.182;2023-05-21T06:54:02;7.33;;;6.77;;
21886;SDS011;11108;49.988;8.182;2023-05-21T06:56:28;7.37;;;6.80;;
21886;SDS011;11108;49.988;8.182;2023-05-21T06:58:53;7.50;;;6.77;;
21886;SDS011;11108;49.988;8.182;2023-05-21T07:01:18;7.53;;;6.93;;
21886;SDS011;11108;49.988;8.182;2023-05-21T07:03:43;8.07;;;7.23;;
21886;SDS011;11108;49.988;8.182;2023-05-21T07:06:09;7.40;;;6.67;;
21886;SDS011;11108;49.988;8.182;2023-05-21T07:08:34;7.60;;;6.97;;
21886;SDS011;11108;49.988;8.182;2023-05-21T07:10:59;7.67;;;7.07;;
21886;SDS011;11108;49.988;8.182;2023-05-21T07:13:24;7.97;;;7.17;;
21886;SDS011;11108;49.988;8.182;2023-05-21T07:15:49;7.30;;;6.70;;
21886;SDS011;11108;49.988;8.182;2023-05-21T07:18:15;7.30;;;6.70;;
21886;SDS011;11108;49.988;8.182;2023-05-21T07:20:40;7.63;;;6.97;;
21886;SDS011;11108;49.988;8.182;2023-05-21T07:23:05;7.30;;;6.60;;
21886;SDS011;11108;49.988;8.182;2023-05-21T07:25:31;7.93;;;7.17;;
21886;SDS011;11108;49.988;8.182;2023-05-21T07:27:56;7.93;;;6.90;;
21886;SDS011;11108;49.988;8.182;2023-05-21T07:30:21;7.40;;;6.73;;
21886;SDS011;11108;49.988;8.182;2023-05-21T07:32:46;8.03;;;7.27;;
21886;SDS011;11108;49.988;8.182;2023-05-21T07:35:11;7.60;;;6.97;;
21886;SDS011;11108;49.988;8.182;2023-05-21T07:37:37;7.60;;;7.00;;
21886;SDS011;11108;49.988;8.182;2023-05-21T07:40:02;8.53;;;7.83;;
21886;SDS011;11108;49.988;8.182;2023-05-21T07:42:28;7.90;;;7.27;;
21886;SDS011;11108;49.988;8.182;2023-05-21T07:44:53;8.17;;;7.37;;
21886;SDS011;11108;49.988;8.182;2023-05-21T07:47:18;8.13;;;7.33;;
21886;SDS011;11108;49.988;8.182;2023-05-21T07:49:43;7.87;;;7.17;;
21886;SDS011;11108;49.988;8.182;2023-05-21T07:52:08;9.07;;;8.10;;
21886;SDS011;11108;49.988;8.182;2023-05-21T07:54:34;8.17;;;7.47;;
21886;SDS011;11108;49.988;8.182;2023-05-21T07:56:59;7.90;;;7.23;;
21886;SDS011;11108;49.988;8.182;2023-05-21T07:59:26;9.10;;;8.20;;
21886;SDS011;11108;49.988;8.182;2023-05-21T08:01:52;8.40;;;7.60;;
21886;SDS011;11108;49.988;8.182;2023-05-21T08:04:17;8.63;;;7.83;;
21886;SDS011;11108;49.988;8.182;2023-05-21T08:06:42;9.13;;;8.33;;
21886;SDS011;11108;49.988;8.182;2023-05-21T08:09:08;9.83;;;8.93;;
21886;SDS011;11108;49.988;8.182;2023-05-21T08:11:33;8.57;;;7.83;;
21886;SDS011;11108;49.988;8.182;2023-05-21T08:13:58;10.55;;;9.55;;
21886;SDS011;11108;49.988;8.182;2023-05-21T08:16:24;10.10;;;9.20;;
21886;SDS011;11108;49.988;8.182;2023-05-21T08:18:49;9.57;;;8.77;;
21886;SDS011;11108;49.988;8.182;2023-05-21T08:21:14;11.00;;;10.00;;
21886;SDS011;11108;49.988;8.182;2023-05-21T08:23:40;10.57;;;9.67;;
21886;SDS011;11108;49.988;8.182;2023-05-21T08:26:06;11.57;;;9.53;;
21886;SDS011;11108;49.988;8.182;2023-05-21T08:28:32;15.40;;;10.40;;
21886;SDS011;11108;49.988;8.182;2023-05-21T08:30:57;11.88;;;10.55;;
21886;SDS011;11108;49.988;8.182;2023-05-21T08:33:22;10.93;;;9.83;;
21886;SDS011;11108;49.988;8.182;2023-05-21T08:35:48;13.40;;;9.67;;
21886;SDS011;11108;49.988;8.182;2023-05-21T08:38:13;11.23;;;10.13;;
21886;SDS011;11108;49.988;8.182;2023-05-21T08:40:38;13.43;;;9.83;;
21886;SDS011;11108;49.988;8.182;2023-05-21T08:43:05;12.23;;;10.60;;
21886;SDS011;11108;49.988;8.182;2023-05-21T08:45:33;14.17;;;9.93;;
21886;SDS011;11108;49.988;8.182;2023-05-21T08:48:01;14.47;;;9.63;;
21886;SDS011;11108;49.988;8.182;2023-05-21T08:50:26;12.33;;;9.17;;
21886;SDS011;11108;49.988;8.182;2023-05-21T08:52:52;12.23;;;10.27;;
21886;SDS011;11108;49.988;8.182;2023-05-21T08:55:19;10.13;;;9.13;;
21886;SDS011;11108;49.988;8.182;2023-05-21T08:57:44;11.30;;;10.20;;
21886;SDS011;11108;49.988;8.182;2023-05-21T09:00:10;12.13;;;9.63;;
21886;SDS011;11108;49.988;8.182;2023-05-21T09:02:35;11.03;;;10.00;;
21886;SDS011;11108;49.988;8.182;2023-05-21T09:05:04;10.40;;;9.37;;
21886;SDS011;11108;49.988;8.182;2023-05-21T09:07:30;11.40;;;9.57;;
21886;SDS011;11108;49.988;8.182;2023-05-21T09:10:02;10.43;;;9.43;;
21886;SDS011;11108;49.988;8.182;2023-05-21T09:12:29;10.67;;;9.33;;
21886;SDS011;11108;49.988;8.182;2023-05-21T09:14:54;9.83;;;8.83;;
21886;SDS011;11108;49.988;8.182;2023-05-21T09:17:21;12.90;;;10.07;;
21886;SDS011;11108;49.988;8.182;2023-05-21T09:22:37;15.77;;;9.80;;
21886;SDS011;11108;49.988;8.182;2023-05-21T09:25:04;16.05;;;10.88;;
21886;SDS011;11108;49.988;8.182;2023-05-21T09:27:31;18.03;;;10.33;;
21886;SDS011;11108;49.988;8.182;2023-05-21T09:29:56;15.67;;;11.47;;
21886;SDS011;11108;49.988;8.182;2023-05-21T09:32:21;12.17;;;10.90;;
21886;SDS011;11108;49.988;8.182;2023-05-21T09:34:46;14.90;;;10.20;;
21886;SDS011;11108;49.988;8.182;2023-05-21T09:37:12;15.87;;;10.90;;
21886;SDS011;11108;49.988;8.182;2023-05-21T09:39:38;12.93;;;10.23;;
21886;SDS011;11108;49.988;8.182;2023-05-21T09:42:04;11.80;;;9.97;;
21886;SDS011;11108;49.988;8.182;2023-05-21T09:44:29;13.20;;;10.48;;
21886;SDS011;11108;49.988;8.182;2023-05-21T09:46:57;12.10;;;10.90;;
21886;SDS011;11108;49.988;8.182;2023-05-21T09:49:23;11.77;;;9.93;;
21886;SDS011;11108;49.988;8.182;2023-05-21T09:51:53;12.13;;;10.80;;
21886;SDS011;11108;49.988;8.182;2023-05-21T09:54:18;12.17;;;10.57;;
21886;SDS011;11108;49.988;8.182;2023-05-21T09:56:45;12.97;;;10.33;;
21886;SDS011;11108;49.988;8.182;2023-05-21T09:59:10;11.98;;;9.88;;
21886;SDS011;11108;49.988;8.182;2023-05-21T10:01:35;12.27;;;10.73;;
21886;SDS011;11108;49.988;8.182;2023-05-21T10:04:04;11.60;;;10.03;;
21886;SDS011;11108;49.988;8.182;2023-05-21T10:06:30;12.90;;;10.43;;
21886;SDS011;11108;49.988;8.182;2023-05-21T10:08:59;11.00;;;10.00;;
21886;SDS011;11108;49.988;8.182;2023-05-21T10:11:26;11.00;;;9.90;;
21886;SDS011;11108;49.988;8.182;2023-05-21T10:13:57;10.18;;;9.30;;
21886;SDS011;11108;49.988;8.182;2023-05-21T10:16:24;12.00;;;9.40;;
21886;SDS011;11108;49.988;8.182;2023-05-21T10:18:50;11.10;;;9.93;;
21886;SDS011;11108;49.988;8.182;2023-05-21T10:21:18;10.77;;;9.67;;
21886;SDS011;11108;49.988;8.182;2023-05-21T10:23:43;11.33;;;9.83;;
21886;SDS011;11108;49.988;8.182;2023-05-21T10:26:09;10.50;;;9.60;;
21886;SDS011;11108;49.988;8.182;2023-05-21T10:28:34;10.70;;;9.70;;
21886;SDS011;11108;49.988;8.182;2023-05-21T10:31:00;11.57;;;9.43;;
21886;SDS011;11108;49.988;8.182;2023-05-21T10:33:25;10.87;;;9.87;;
21886;SDS011;11108;49.988;8.182;2023-05-21T10:35:51;10.27;;;9.32;;
21886;SDS011;11108;49.988;8.182;2023-05-21T10:38:17;9.97;;;9.07;;
21886;SDS011;11108;49.988;8.182;2023-05-21T10:40:43;11.23;;;9.97;;
21886;SDS011;11108;49.988;8.182;2023-05-21T10:48:22;10.33;;;9.23;;
21886;SDS011;11108;49.988;8.182;2023-05-21T10:56:22;11.33;;;9.43;;
21886;SDS011;11108;49.988;8.182;2023-05-21T11:01:25;10.93;;;9.77;;
21886;SDS011;11108;49.988;8.182;2023-05-21T11:03:50;9.80;;;8.93;;
21886;SDS011;11108;49.988;8.182;2023-05-21T11:06:22;11.10;;;9.67;;
21886;SDS011;11108;49.988;8.182;2023-05-21T11:08:49;11.10;;;9.13;;
21886;SDS011;11108;49.988;8.182;2023-05-21T11:11:20;12.03;;;10.27;;
21886;SDS011;11108;49.988;8.182;2023-05-21T11:14:01;14.43;;;10.43;;
21886;SDS011;11108;49.988;8.182;2023-05-21T11:16:47;12.27;;;9.97;;
21886;SDS011;11108;49.988;8.182;2023-05-21T11:19:18;10.77;;;9.67;;
21886;SDS011;11108;49.988;8.182;2023-05-21T11:21:48;11.03;;;9.93;;
21886;SDS011;11108;49.988;8.182;2023-05-21T11:24:17;12.33;;;9.53;;
21886;SDS011;11108;49.988;8.182;2023-05-21T11:29:14;11.07;;;10.03;;
21886;SDS011;11108;49.988;8.182;2023-05-21T11:31:57;11.17;;;9.90;;
21886;SDS011;11108;49.988;8.182;2023-05-21T11:34:25;10.77;;;9.77;;
21886;SDS011;11108;49.988;8.182;2023-05-21T11:39:39;12.40;;;10.80;;
21886;SDS011;11108;49.988;8.182;2023-05-21T11:42:04;10.63;;;9.73;;
21886;SDS011;11108;49.988;8.182;2023-05-21T11:44:42;11.20;;;9.50;;
21886;SDS011;11108;49.988;8.182;2023-05-21T11:47:08;10.30;;;9.20;;
21886;SDS011;11108;49.988;8.182;2023-05-21T11:49:34;10.67;;;9.73;;
21886;SDS011;11108;49.988;8.182;2023-05-21T11:52:00;11.07;;;10.17;;
21886;SDS011;11108;49.988;8.182;2023-05-21T11:54:25;10.67;;;9.67;;
21886;SDS011;11108;49.988;8.182;2023-05-21T11:56:51;10.13;;;9.23;;
21886;SDS011;11108;49.988;8.182;2023-05-21T11:59:16;10.93;;;9.90;;
21886;SDS011;11108;49.988;8.182;2023-05-21T12:01:42;11.10;;;10.20;;
21886;SDS011;11108;49.988;8.182;2023-05-21T12:04:07;10.50;;;9.60;;
21886;SDS011;11108;49.988;8.182;2023-05-21T12:06:33;10.80;;;9.90;;
21886;SDS011;11108;49.988;8.182;2023-05-21T12:08:58;11.83;;;10.77;;
21886;SDS011;11108;49.988;8.182;2023-05-21T12:11:23;11.27;;;10.27;;
21886;SDS011;11108;49.988;8.182;2023-05-21T12:13:50;11.87;;;10.87;;
21886;SDS011;11108;49.988;8.182;2023-05-21T12:16:15;10.80;;;9.90;;
21886;SDS011;11108;49.988;8.182;2023-05-21T12:18:41;10.67;;;9.87;;
21886;SDS011;11108;49.988;8.182;2023-05-21T12:21:06;11.00;;;9.90;;
21886;SDS011;11108;49.988;8.182;2023-05-21T12:23:32;11.60;;;10.60;;
21886;SDS011;11108;49.988;8.182;2023-05-21T12:25:57;10.77;;;9.70;;
21886;SDS011;11108;49.988;8.182;2023-05-21T12:28:23;10.63;;;9.63;;
21886;SDS011;11108;49.988;8.182;2023-05-21T12:30:48;11.27;;;10.37;;
21886;SDS011;11108;49.988;8.182;2023-05-21T12:33:13;9.67;;;8.97;;
21886;SDS011;11108;49.988;8.182;2023-05-21T12:35:43;12.30;;;11.20;;
21886;SDS011;11108;49.988;8.182;2023-05-21T12:38:09;10.53;;;9.73;;
21886;SDS011;11108;49.988;8.182;2023-05-21T12:40:37;11.40;;;10.40;;
21886;SDS011;11108;49.988;8.182;2023-05-21T12:43:02;10.33;;;9.40;;
21886;SDS011;11108;49.988;8.182;2023-05-21T12:45:29;10.57;;;9.73;;
21886;SDS011;11108;49.988;8.182;2023-05-21T12:47:54;11.03;;;10.03;;
21886;SDS011;11108;49.988;8.182;2023-05-21T12:50:20;11.13;;;10.00;;
21886;SDS011;11108;49.988;8.182;2023-05-21T12:52:46;10.93;;;9.83;;
21886;SDS011;11108;49.988;8.182;2023-05-21T12:55:14;11.63;;;10.53;;
21886;SDS011;11108;49.988;8.182;2023-05-21T12:57:40;11.60;;;10.10;;
21886;SDS011;11108;49.988;8.182;2023-05-21T13:00:08;12.17;;;11.00;;
21886;SDS011;11108;49.988;8.182;2023-05-21T13:02:38;10.73;;;9.73;;
21886;SDS011;11108;49.988;8.182;2023-05-21T13:05:05;11.03;;;10.03;;
21886;SDS011;11108;49.988;8.182;2023-05-21T13:07:31;10.93;;;9.93;;
21886;SDS011;11108;49.988;8.182;2023-05-21T13:09:56;12.20;;;11.00;;
21886;SDS011;11108;49.988;8.182;2023-05-21T13:12:22;11.70;;;10.80;;
21886;SDS011;11108;49.988;8.182;2023-05-21T13:14:52;11.70;;;10.60;;
21886;SDS011;11108;49.988;8.182;2023-05-21T13:17:18;10.33;;;9.27;;
21886;SDS011;11108;49.988;8.182;2023-05-21T13:19:48;11.20;;;10.20;;
21886;SDS011;11108;49.988;8.182;2023-05-21T13:22:28;11.17;;;10.17;;
21886;SDS011;11108;49.988;8.182;2023-05-21T13:24:53;11.00;;;10.00;;
21886;SDS011;11108;49.988;8.182;2023-05-21T13:27:18;10.73;;;9.80;;
21886;SDS011;11108;49.988;8.182;2023-05-21T13:29:44;10.67;;;9.60;;
21886;SDS011;11108;49.988;8.182;2023-05-21T13:32:09;10.90;;;10.00;;
21886;SDS011;11108;49.988;8.182;2023-05-21T13:34:34;11.50;;;10.30;;
21886;SDS011;11108;49.988;8.182;2023-05-21T13:37:00;13.93;;;9.90;;
21886;SDS011;11108;49.988;8.182;2023-05-21T13:39:25;15.27;;;10.73;;
21886;SDS011;11108;49.988;8.182;2023-05-21T13:41:51;13.40;;;9.67;;
21886;SDS011;11108;49.988;8.182;2023-05-21T13:44:16;11.80;;;9.90;;
21886;SDS011;11108;49.988;8.182;2023-05-21T13:46:41;15.43;;;12.37;;
21886;SDS011;11108;49.988;8.182;2023-05-21T13:49:07;16.63;;;14.93;;
21886;SDS011;11108;49.988;8.182;2023-05-21T13:51:32;14.77;;;13.47;;
21886;SDS011;11108;49.988;8.182;2023-05-21T13:53:57;15.23;;;13.63;;
21886;SDS011;11108;49.988;8.182;2023-05-21T13:56:22;14.30;;;12.80;;
21886;SDS011;11108;49.988;8.182;2023-05-21T13:58:47;12.97;;;11.60;;
21886;SDS011;11108;49.988;8.182;2023-05-21T14:01:13;11.80;;;10.70;;
21886;SDS011;11108;49.988;8.182;2023-05-21T14:03:38;12.48;;;10.95;;
21886;SDS011;11108;49.988;8.182;2023-05-21T14:06:03;11.43;;;10.33;;
21886;SDS011;11108;49.988;8.182;2023-05-21T14:08:29;11.03;;;10.03;;
21886;SDS011;11108;49.988;8.182;2023-05-21T14:10:55;11.38;;;10.18;;
21886;SDS011;11108;49.988;8.182;2023-05-21T14:13:21;11.07;;;10.07;;
21886;SDS011;11108;49.988;8.182;2023-05-21T14:15:46;11.80;;;10.70;;
21886;SDS011;11108;49.988;8.182;2023-05-21T14:18:12;12.00;;;10.48;;
21886;SDS011;11108;49.988;8.182;2023-05-21T14:20:37;12.57;;;10.30;;
21886;SDS011;11108;49.988;8.182;2023-05-21T14:23:03;10.93;;;9.83;;
21886;SDS011;11108;49.988;8.182;2023-05-21T14:25:28;11.37;;;10.20;;
21886;SDS011;11108;49.988;8.182;2023-05-21T14:27:53;11.03;;;9.97;;
21886;SDS011;11108;49.988;8.182;2023-05-21T14:30:19;12.60;;;10.20;;
21886;SDS011;11108;49.988;8.182;2023-05-21T14:32:44;11.45;;;10.23;;
21886;SDS011;11108;49.988;8.182;2023-05-21T14:35:09;12.70;;;10.60;;
21886;SDS011;11108;49.988;8.182;2023-05-21T14:37:34;12.73;;;10.30;;
21886;SDS011;11108;49.988;8.182;2023-05-21T14:40:00;13.00;;;9.93;;
21886;SDS011;11108;49.988;8.182;2023-05-21T14:42:25;9.57;;;8.63;;
21886;SDS011;11108;49.988;8.182;2023-05-21T14:44:50;10.50;;;9.50;;
21886;SDS011;11108;49.988;8.182;2023-05-21T14:47:16;10.60;;;9.60;;
21886;SDS011;11108;49.988;8.182;2023-05-21T14:49:41;11.67;;;10.43;;
21886;SDS011;11108;49.988;8.182;2023-05-21T14:52:06;10.27;;;9.13;;
21886;SDS011;11108;49.988;8.182;2023-05-21T14:54:31;9.87;;;8.93;;